createdAt,value
2023-01-02T00:00:32.222Z,98.79
2023-01-02T00:01:32.190Z,98.74
2023-01-02T00:02:32.254Z,99.41
2023-01-02T00:03:32.361Z,99.41
2023-01-02T00:04:32.173Z,99.62
2023-01-02T00:05:32.162Z,98.49
2023-01-02T00:06:32.217Z,98.28
2023-01-02T00:07:32.132Z,98.18
2023-01-02T00:08:32.087Z,98.18
2023-01-02T00:09:32.129Z,98.38
2023-01-02T00:10:32.110Z,98.18
2023-01-02T00:11:32.232Z,98.07
2023-01-02T00:12:32.076Z,97.87
2023-01-02T00:13:32.048Z,98.22
2023-01-02T00:14:32.076Z,98.53
2023-01-02T00:15:32.044Z,98.22
2023-01-02T00:16:32.444Z,98.16
2023-01-02T00:17:32.158Z,98.27
2023-01-02T00:18:32.064Z,98.58
2023-01-02T00:19:32.035Z,99.40
2023-01-02T00:20:31.985Z,99.44
2023-01-02T00:21:32.140Z,99.44
2023-01-02T00:22:31.988Z,99.55
2023-01-02T00:23:31.963Z,99.80
2023-01-02T00:24:31.946Z,99.99
2023-01-02T00:25:31.930Z,99.99
2023-01-02T00:26:31.920Z,99.99
2023-01-02T00:27:31.946Z,99.99
2023-01-02T00:28:31.957Z,99.99
2023-01-02T00:29:31.917Z,99.99
2023-01-02T00:30:37.937Z,99.99
2023-01-02T00:31:33.030Z,99.99
2023-01-02T00:32:31.896Z,99.99
2023-01-02T00:33:31.842Z,99.99
2023-01-02T00:34:31.864Z,99.99
2023-01-02T00:35:31.815Z,99.99
2023-01-02T00:36:31.832Z,99.99
2023-01-02T00:37:31.781Z,99.60
2023-01-02T00:38:31.781Z,99.51
2023-01-02T00:39:31.844Z,99.56
2023-01-02T00:40:31.767Z,98.07
2023-01-02T00:41:31.821Z,98.38
2023-01-02T00:42:31.754Z,97.87
2023-01-02T00:43:31.755Z,97.40
2023-01-02T00:44:31.725Z,97.97
2023-01-02T00:45:31.714Z,97.77
2023-01-02T00:46:31.768Z,98.07
2023-01-02T00:47:31.795Z,97.97
2023-01-02T00:48:31.733Z,97.97
2023-01-02T00:49:31.736Z,98.12
2023-01-02T00:50:31.643Z,98.12
2023-01-02T00:51:31.707Z,98.02
2023-01-02T00:52:31.679Z,97.91
2023-01-02T00:53:31.640Z,98.27
2023-01-02T00:54:31.629Z,98.47
2023-01-02T00:55:31.616Z,98.58
2023-01-02T00:56:31.614Z,98.37
2023-01-02T00:57:31.586Z,98.21
2023-01-02T00:58:31.556Z,99.30
2023-01-02T00:59:31.570Z,99.05
2023-01-02T01:00:31.540Z,97.91
2023-01-02T01:01:31.661Z,97.61
2023-01-02T01:02:31.671Z,97.91
2023-01-02T01:03:31.547Z,98.43
2023-01-02T01:04:31.497Z,98.02
2023-01-02T01:05:31.518Z,97.61
2023-01-02T01:06:31.525Z,98.12
2023-01-02T01:07:31.493Z,98.22
2023-01-02T01:08:31.549Z,98.22
2023-01-02T01:09:31.448Z,98.02
2023-01-02T01:10:31.466Z,97.81
2023-01-02T01:11:31.503Z,97.91
2023-01-02T01:12:31.434Z,97.14
2023-01-02T01:13:31.420Z,96.97
2023-01-02T01:14:31.438Z,97.90
2023-01-02T01:15:31.385Z,98.32
2023-01-02T01:16:31.558Z,98.11
2023-01-02T01:17:31.374Z,98.46
2023-01-02T01:18:31.342Z,99.60
2023-01-02T01:19:31.365Z,99.49
2023-01-02T01:20:31.346Z,99.43
2023-01-02T01:21:31.372Z,99.02
2023-01-02T01:22:31.341Z,99.43
2023-01-02T01:23:31.363Z,99.99
2023-01-02T01:24:31.308Z,99.54
2023-01-02T01:25:31.290Z,99.99
2023-01-02T01:26:31.330Z,99.99
2023-01-02T01:27:31.255Z,99.99
2023-01-02T01:28:31.280Z,99.99
2023-01-02T01:29:31.230Z,99.69
2023-01-02T01:30:31.336Z,99.73
2023-01-02T01:31:31.301Z,99.99
2023-01-02T01:32:31.203Z,99.99
2023-01-02T01:33:31.323Z,99.99
2023-01-02T01:34:31.223Z,99.99
2023-01-02T01:35:31.194Z,99.99
2023-01-02T01:36:31.205Z,99.99
2023-01-02T01:37:31.219Z,99.99
2023-01-02T01:38:31.163Z,99.99
2023-01-02T01:39:31.190Z,99.99
2023-01-02T01:40:31.108Z,99.99
2023-01-02T01:41:31.419Z,99.99
2023-01-02T01:42:31.142Z,99.99
2023-01-02T01:43:31.077Z,99.99
2023-01-02T01:44:31.068Z,99.99
2023-01-02T01:45:31.171Z,99.99
2023-01-02T01:46:31.250Z,99.99
2023-01-02T01:47:31.065Z,99.99
2023-01-02T01:48:31.077Z,99.99
2023-01-02T01:49:31.045Z,99.99
2023-01-02T01:50:31.107Z,99.99
2023-01-02T01:51:31.070Z,99.99
2023-01-02T01:52:31.011Z,99.99
2023-01-02T01:53:31.008Z,99.99
2023-01-02T01:54:30.980Z,99.99
2023-01-02T01:55:30.987Z,99.99
2023-01-02T01:56:30.987Z,99.99
2023-01-02T01:57:30.973Z,99.99
2023-01-02T01:58:30.934Z,99.99
2023-01-02T01:59:30.979Z,99.99
2023-01-02T02:00:30.921Z,99.99
2023-01-02T02:01:30.942Z,99.99
2023-01-02T02:02:30.957Z,99.99
2023-01-02T02:03:30.887Z,99.99
2023-01-02T02:04:30.893Z,99.99
2023-01-02T02:05:30.841Z,99.99
2023-01-02T02:06:30.877Z,99.99
2023-01-02T02:07:30.846Z,99.99
2023-01-02T02:08:30.846Z,99.99
2023-01-02T02:09:30.800Z,99.99
2023-01-02T02:10:30.879Z,99.99
2023-01-02T02:11:30.979Z,99.99
2023-01-02T02:12:30.790Z,99.99
2023-01-02T02:13:30.805Z,99.99
2023-01-02T02:14:30.786Z,99.99
2023-01-02T02:15:30.802Z,99.99
2023-01-02T02:16:30.799Z,99.99
2023-01-02T02:17:30.737Z,99.99
2023-01-02T02:18:30.737Z,99.99
2023-01-02T02:19:30.689Z,99.99
2023-01-02T02:20:30.748Z,99.99
2023-01-02T02:21:30.702Z,99.99
2023-01-02T02:22:30.666Z,99.99
2023-01-02T02:23:30.691Z,99.99
2023-01-02T02:24:30.679Z,99.99
2023-01-02T02:25:30.636Z,99.99
2023-01-02T02:26:30.667Z,99.99
2023-01-02T02:27:30.640Z,99.99
2023-01-02T02:28:30.684Z,99.99
2023-01-02T02:29:30.636Z,99.99
2023-01-02T02:30:30.605Z,99.99
2023-01-02T02:31:30.652Z,99.99
2023-01-02T02:32:30.607Z,99.99
2023-01-02T02:33:30.563Z,99.99
2023-01-02T02:34:30.543Z,99.99
2023-01-02T02:35:30.526Z,99.99
2023-01-02T02:36:30.609Z,99.99
2023-01-02T02:37:30.529Z,99.99
2023-01-02T02:38:30.545Z,99.99
2023-01-02T02:39:30.510Z,99.99
2023-01-02T02:40:30.472Z,99.99
2023-01-02T02:41:30.541Z,99.99
2023-01-02T02:42:30.476Z,99.99
2023-01-02T02:43:30.460Z,99.99
2023-01-02T02:44:30.483Z,99.99
2023-01-02T02:45:30.465Z,99.99
2023-01-02T02:46:30.461Z,99.99
2023-01-02T02:47:30.407Z,99.99
2023-01-02T02:48:30.417Z,99.99
2023-01-02T02:49:30.402Z,99.99
2023-01-02T02:50:30.534Z,99.99
2023-01-02T02:51:30.384Z,99.99
2023-01-02T02:52:30.373Z,99.99
2023-01-02T02:53:30.441Z,99.99
2023-01-02T02:54:30.351Z,99.99
2023-01-02T02:55:30.341Z,99.99
2023-01-02T02:56:30.383Z,99.81
2023-01-02T02:57:30.376Z,98.18
2023-01-02T02:58:30.305Z,96.73
2023-01-02T02:59:30.323Z,96.59
2023-01-02T03:00:30.337Z,95.92
2023-01-02T03:01:31.197Z,95.36
2023-01-02T03:02:30.419Z,95.67
2023-01-02T03:03:30.307Z,94.84
2023-01-02T03:04:30.261Z,94.80
2023-01-02T03:05:30.250Z,94.29
2023-01-02T03:06:30.244Z,93.57
2023-01-02T03:07:30.305Z,94.18
2023-01-02T03:08:33.238Z,93.77
2023-01-02T03:09:30.171Z,93.46
2023-01-02T03:10:30.337Z,93.57
2023-01-02T03:11:30.273Z,92.74
2023-01-02T03:12:30.135Z,93.12
2023-01-02T03:13:40.559Z,93.42
2023-01-02T03:14:31.157Z,92.19
2023-01-02T03:15:30.146Z,93.12
2023-01-02T03:16:30.217Z,93.12
2023-01-02T03:17:30.109Z,93.63
2023-01-02T03:18:30.073Z,93.52
2023-01-02T03:19:30.076Z,93.05
2023-01-02T03:20:30.083Z,93.26
2023-01-02T03:21:31.528Z,93.83
2023-01-02T03:22:30.037Z,94.39
2023-01-02T03:23:30.056Z,94.18
2023-01-02T03:24:30.033Z,93.67
2023-01-02T03:25:30.221Z,93.42
2023-01-02T03:26:30.008Z,93.01
2023-01-02T03:27:30.002Z,93.63
2023-01-02T03:28:29.960Z,93.83
2023-01-02T03:29:29.969Z,93.52
2023-01-02T03:30:30.056Z,93.83
2023-01-02T03:31:29.986Z,93.21
2023-01-02T03:32:29.926Z,92.50
2023-01-02T03:33:29.934Z,91.53
2023-01-02T03:34:29.935Z,90.91
2023-01-02T03:35:29.977Z,90.36
2023-01-02T03:36:29.938Z,90.26
2023-01-02T03:37:29.867Z,89.54
2023-01-02T03:38:29.958Z,89.50
2023-01-02T03:39:29.907Z,89.29
2023-01-02T03:40:29.916Z,89.29
2023-01-02T03:41:29.891Z,88.74
2023-01-02T03:42:29.841Z,88.84
2023-01-02T03:43:29.908Z,89.15
2023-01-02T03:44:29.799Z,89.19
2023-01-02T03:45:29.796Z,88.88
2023-01-02T03:46:29.831Z,89.09
2023-01-02T03:47:29.812Z,88.17
2023-01-02T03:48:29.795Z,89.19
2023-01-02T03:49:29.785Z,89.25
2023-01-02T03:50:29.861Z,88.68
2023-01-02T03:51:29.720Z,88.98
2023-01-02T03:52:29.798Z,89.70
2023-01-02T03:53:29.720Z,89.19
2023-01-02T03:54:29.698Z,89.43
2023-01-02T03:55:29.787Z,89.54
2023-01-02T03:56:29.670Z,89.43
2023-01-02T03:57:29.685Z,90.61
2023-01-02T03:58:29.687Z,90.44
2023-01-02T03:59:29.696Z,91.37
2023-01-02T04:00:29.674Z,91.27
2023-01-02T04:01:29.694Z,92.03
2023-01-02T04:02:29.768Z,93.10
2023-01-02T04:03:29.596Z,93.67
2023-01-02T04:04:29.640Z,93.61
2023-01-02T04:05:29.577Z,93.71
2023-01-02T04:06:29.585Z,93.82
2023-01-02T04:07:29.579Z,93.40
2023-01-02T04:08:29.620Z,93.86
2023-01-02T04:09:29.531Z,93.65
2023-01-02T04:10:29.521Z,93.10
2023-01-02T04:11:29.509Z,92.79
2023-01-02T04:12:29.511Z,92.85
2023-01-02T04:13:29.530Z,92.23
2023-01-02T04:14:29.485Z,92.33
2023-01-02T04:15:29.507Z,91.76
2023-01-02T04:16:29.487Z,92.07
2023-01-02T04:17:29.516Z,93.35
2023-01-02T04:18:29.456Z,93.44
2023-01-02T04:19:29.448Z,93.86
2023-01-02T04:20:29.424Z,93.24
2023-01-02T04:21:29.426Z,93.14
2023-01-02T04:22:29.449Z,93.44
2023-01-02T04:23:29.432Z,93.10
2023-01-02T04:24:29.435Z,92.48
2023-01-02T04:25:29.378Z,91.72
2023-01-02T04:26:29.367Z,91.61
2023-01-02T04:27:29.360Z,90.24
2023-01-02T04:28:29.324Z,89.13
2023-01-02T04:29:29.723Z,87.65
2023-01-02T04:30:29.315Z,86.99
2023-01-02T04:31:29.346Z,86.07
2023-01-02T04:32:29.297Z,85.22
2023-01-02T04:33:29.268Z,84.15
2023-01-02T04:34:29.264Z,84.15
2023-01-02T04:35:29.385Z,84.31
2023-01-02T04:36:29.253Z,83.39
2023-01-02T04:37:29.248Z,83.09
2023-01-02T04:38:29.219Z,83.09
2023-01-02T04:39:29.259Z,82.78
2023-01-02T04:40:29.193Z,82.78
2023-01-02T04:41:29.238Z,82.89
2023-01-02T04:42:29.180Z,82.37
2023-01-02T04:43:29.156Z,82.98
2023-01-02T04:44:29.188Z,83.33
2023-01-02T04:45:29.123Z,83.64
2023-01-02T04:46:29.256Z,82.71
2023-01-02T04:47:29.190Z,83.03
2023-01-02T04:48:29.114Z,83.19
2023-01-02T04:49:29.093Z,83.13
2023-01-02T04:50:29.127Z,82.78
2023-01-02T04:51:29.155Z,82.37
2023-01-02T04:52:35.046Z,82.78
2023-01-02T04:53:30.061Z,81.62
2023-01-02T04:54:29.055Z,82.13
2023-01-02T04:55:29.073Z,81.17
2023-01-02T04:56:29.134Z,81.93
2023-01-02T04:57:29.104Z,81.07
2023-01-02T04:58:29.052Z,80.66
2023-01-02T04:59:28.973Z,80.56
2023-01-02T05:00:28.987Z,80.76
2023-01-02T05:01:29.149Z,80.15
2023-01-02T05:02:29.073Z,79.91
2023-01-02T05:03:29.013Z,79.50
2023-01-02T05:04:29.022Z,80.01
2023-01-02T05:05:28.934Z,80.87
2023-01-02T05:06:28.915Z,80.87
2023-01-02T05:07:28.930Z,80.76
2023-01-02T05:08:28.946Z,80.05
2023-01-02T05:09:28.894Z,80.76
2023-01-02T05:10:28.887Z,80.66
2023-01-02T05:11:28.860Z,81.21
2023-01-02T05:12:28.892Z,81.21
2023-01-02T05:13:28.947Z,81.41
2023-01-02T05:14:28.891Z,80.69
2023-01-02T05:15:28.807Z,82.57
2023-01-02T05:16:28.893Z,82.57
2023-01-02T05:17:28.823Z,81.24
2023-01-02T05:18:29.053Z,81.56
2023-01-02T05:19:28.796Z,81.24
2023-01-02T05:20:28.833Z,81.93
2023-01-02T05:21:28.773Z,82.89
2023-01-02T05:22:28.760Z,82.71
2023-01-02T05:23:28.727Z,82.68
2023-01-02T05:24:28.742Z,82.17
2023-01-02T05:25:28.891Z,81.56
2023-01-02T05:26:28.751Z,81.04
2023-01-02T05:27:28.780Z,80.94
2023-01-02T05:28:31.245Z,80.90
2023-01-02T05:29:29.715Z,80.19
2023-01-02T05:30:28.706Z,79.68
2023-01-02T05:31:28.910Z,79.23
2023-01-02T05:32:28.737Z,79.23
2023-01-02T05:33:28.658Z,79.43
2023-01-02T05:34:28.620Z,79.02
2023-01-02T05:35:32.569Z,79.53
2023-01-02T05:36:28.692Z,80.15
2023-01-02T05:37:28.615Z,79.68
2023-01-02T05:38:28.586Z,79.78
2023-01-02T05:39:28.564Z,80.19
2023-01-02T05:40:28.620Z,81.10
2023-01-02T05:41:28.564Z,81.35
2023-01-02T05:42:28.545Z,81.15
2023-01-02T05:43:28.517Z,81.15
2023-01-02T05:44:28.840Z,82.37
2023-01-02T05:45:28.520Z,82.82
2023-01-02T05:46:28.572Z,84.09
2023-01-02T05:47:28.535Z,83.20
2023-01-02T05:48:28.469Z,83.00
2023-01-02T05:49:28.460Z,83.10
2023-01-02T05:50:28.468Z,82.86
2023-01-02T05:51:28.455Z,84.19
2023-01-02T05:52:28.435Z,84.44
2023-01-02T05:53:28.444Z,84.03
2023-01-02T05:54:28.424Z,85.46
2023-01-02T05:55:28.418Z,84.84
2023-01-02T05:56:28.419Z,84.23
2023-01-02T05:57:28.364Z,84.23
2023-01-02T05:58:28.360Z,83.20
2023-01-02T05:59:28.371Z,83.17
2023-01-02T06:00:28.368Z,82.96
2023-01-02T06:01:28.391Z,82.71
2023-01-02T06:02:28.411Z,82.00
2023-01-02T06:03:28.423Z,81.65
2023-01-02T06:04:28.294Z,80.83
2023-01-02T06:05:28.313Z,82.17
2023-01-02T06:06:28.278Z,80.63
2023-01-02T06:07:28.298Z,81.24
2023-01-02T06:08:28.350Z,82.71
2023-01-02T06:09:28.275Z,82.71
2023-01-02T06:10:28.212Z,83.23
2023-01-02T06:11:28.245Z,82.96
2023-01-02T06:12:28.224Z,82.71
2023-01-02T06:13:28.358Z,82.10
2023-01-02T06:14:28.237Z,82.41
2023-01-02T06:15:28.215Z,81.49
2023-01-02T06:16:28.213Z,80.63
2023-01-02T06:17:28.199Z,81.04
2023-01-02T06:18:28.155Z,81.04
2023-01-02T06:19:28.151Z,80.83
2023-01-02T06:20:28.140Z,80.74
2023-01-02T06:21:28.141Z,81.15
2023-01-02T06:22:28.205Z,81.24
2023-01-02T06:23:28.100Z,81.15
2023-01-02T06:24:28.080Z,80.43
2023-01-02T06:25:28.133Z,80.08
2023-01-02T06:26:34.247Z,79.98
2023-01-02T06:27:29.098Z,79.47
2023-01-02T06:28:28.092Z,79.37
2023-01-02T06:29:28.025Z,79.23
2023-01-02T06:30:28.032Z,79.37
2023-01-02T06:31:28.098Z,78.96
2023-01-02T06:32:28.065Z,79.13
2023-01-02T06:33:27.981Z,79.13
2023-01-02T06:34:27.972Z,78.82
2023-01-02T06:35:27.954Z,78.92
2023-01-02T06:36:27.947Z,78.58
2023-01-02T06:37:27.954Z,78.41
2023-01-02T06:38:28.072Z,78.38
2023-01-02T06:39:28.055Z,78.52
2023-01-02T06:40:27.941Z,78.20
2023-01-02T06:41:27.928Z,77.97
2023-01-02T06:42:27.955Z,77.45
2023-01-02T06:43:27.923Z,77.45
2023-01-02T06:44:27.862Z,77.97
2023-01-02T06:45:27.915Z,77.66
2023-01-02T06:46:27.870Z,76.94
2023-01-02T06:47:27.889Z,77.45
2023-01-02T06:48:27.842Z,78.27
2023-01-02T06:49:27.911Z,78.20
2023-01-02T06:50:34.648Z,77.45
2023-01-02T06:51:28.786Z,77.25
2023-01-02T06:52:27.775Z,77.04
2023-01-02T06:53:27.844Z,77.56
2023-01-02T06:54:27.783Z,77.04
2023-01-02T06:55:27.863Z,77.35
2023-01-02T06:56:27.821Z,76.50
2023-01-02T06:57:27.752Z,77.56
2023-01-02T06:58:27.727Z,76.64
2023-01-02T06:59:28.023Z,76.40
2023-01-02T07:00:27.701Z,76.09
2023-01-02T07:01:27.799Z,76.50
2023-01-02T07:02:27.889Z,76.70
2023-01-02T07:03:27.655Z,76.50
2023-01-02T07:04:27.659Z,76.09
2023-01-02T07:05:27.681Z,76.29
2023-01-02T07:06:27.838Z,76.40
2023-01-02T07:07:27.670Z,75.89
2023-01-02T07:08:27.608Z,76.16
2023-01-02T07:09:27.656Z,75.48
2023-01-02T07:10:27.624Z,75.95
2023-01-02T07:11:27.678Z,76.50
2023-01-02T07:12:27.564Z,76.70
2023-01-02T07:13:27.544Z,76.60
2023-01-02T07:14:27.566Z,76.50
2023-01-02T07:15:27.529Z,76.60
2023-01-02T07:16:27.548Z,75.95
2023-01-02T07:17:28.038Z,75.78
2023-01-02T07:18:27.517Z,75.85
2023-01-02T07:19:27.489Z,75.75
2023-01-02T07:20:27.484Z,75.89
2023-01-02T07:21:27.452Z,75.44
2023-01-02T07:22:27.552Z,75.65
2023-01-02T07:23:27.533Z,74.69
2023-01-02T07:24:27.455Z,75.00
2023-01-02T07:25:27.472Z,74.49
2023-01-02T07:26:27.408Z,74.79
2023-01-02T07:27:27.732Z,75.31
2023-01-02T07:28:27.484Z,75.04
2023-01-02T07:29:27.386Z,74.73
2023-01-02T07:30:27.928Z,75.54
2023-01-02T07:31:27.434Z,75.89
2023-01-02T07:32:27.936Z,76.06
2023-01-02T07:33:27.365Z,75.89
2023-01-02T07:34:27.329Z,75.78
2023-01-02T07:35:27.328Z,75.78
2023-01-02T07:36:27.530Z,75.95
2023-01-02T07:37:27.359Z,75.99
2023-01-02T07:38:27.330Z,76.19
2023-01-02T07:39:27.294Z,75.48
2023-01-02T07:40:31.936Z,76.19
2023-01-02T07:41:28.361Z,75.89
2023-01-02T07:42:27.302Z,75.58
2023-01-02T07:43:27.239Z,75.89
2023-01-02T07:44:27.244Z,75.58
2023-01-02T07:45:27.202Z,76.09
2023-01-02T07:46:27.278Z,76.26
2023-01-02T07:47:27.204Z,75.34
2023-01-02T07:48:27.201Z,75.07
2023-01-02T07:49:27.203Z,75.54
2023-01-02T07:50:27.166Z,77.22
2023-01-02T07:51:27.859Z,76.60
2023-01-02T07:52:27.349Z,75.48
2023-01-02T07:53:27.117Z,75.58
2023-01-02T07:54:27.116Z,75.34
2023-01-02T07:55:27.151Z,75.75
2023-01-02T07:56:27.089Z,75.65
2023-01-02T07:57:27.121Z,75.48
2023-01-02T07:58:27.125Z,75.24
2023-01-02T07:59:27.071Z,74.93
2023-01-02T08:00:27.028Z,75.24
2023-01-02T08:01:27.221Z,74.63
2023-01-02T08:02:27.124Z,74.18
2023-01-02T08:03:27.002Z,73.98
2023-01-02T08:04:27.155Z,73.88
2023-01-02T08:05:26.992Z,74.49
2023-01-02T08:06:26.988Z,74.29
2023-01-02T08:07:26.993Z,72.86
2023-01-02T08:08:26.964Z,74.18
2023-01-02T08:09:26.955Z,73.13
2023-01-02T08:10:27.029Z,73.23
2023-01-02T08:11:26.991Z,72.82
2023-01-02T08:12:26.963Z,73.13
2023-01-02T08:13:26.938Z,74.05
2023-01-02T08:14:27.856Z,73.23
2023-01-02T08:15:26.980Z,72.52
2023-01-02T08:16:26.964Z,71.46
2023-01-02T08:17:26.951Z,72.58
2023-01-02T08:18:26.847Z,72.58
2023-01-02T08:19:26.861Z,71.94
2023-01-02T08:20:27.076Z,71.87
2023-01-02T08:21:26.946Z,73.10
2023-01-02T08:22:26.882Z,72.69
2023-01-02T08:23:26.848Z,73.91
2023-01-02T08:24:26.822Z,73.19
2023-01-02T08:25:26.958Z,71.87
2023-01-02T08:26:26.767Z,71.87
2023-01-02T08:27:28.643Z,71.94
2023-01-02T08:28:38.704Z,71.43
2023-01-02T08:29:27.648Z,71.94
2023-01-02T08:30:26.907Z,71.97
2023-01-02T08:31:26.867Z,72.58
2023-01-02T08:32:26.773Z,72.69
2023-01-02T08:33:26.845Z,73.10
2023-01-02T08:34:28.346Z,73.10
2023-01-02T08:35:38.280Z,73.19
2023-01-02T08:36:29.326Z,73.19
2023-01-02T08:37:27.001Z,73.10
2023-01-02T08:38:28.846Z,73.71
2023-01-02T08:39:29.149Z,74.42
2023-01-02T08:40:28.065Z,74.42
2023-01-02T08:41:29.299Z,74.21
2023-01-02T08:42:27.314Z,74.86
2023-01-02T08:43:32.307Z,74.42
2023-01-02T08:44:32.120Z,74.45
2023-01-02T08:45:28.814Z,74.15
2023-01-02T08:46:32.422Z,73.81
2023-01-02T08:47:35.162Z,73.81
2023-01-02T08:48:30.080Z,73.30
2023-01-02T08:49:34.215Z,72.38
2023-01-02T08:50:35.676Z,72.79
2023-01-02T08:51:30.261Z,73.10
2023-01-02T08:52:33.771Z,72.75
2023-01-02T08:53:32.663Z,73.06
2023-01-02T08:54:28.464Z,71.63
2023-01-02T08:55:36.773Z,70.99
2023-01-02T08:56:32.142Z,70.14
2023-01-02T08:57:39.291Z,69.93
2023-01-02T08:58:34.376Z,70.04
2023-01-02T08:59:43.288Z,68.38
2023-01-02T09:00:32.398Z,68.35
2023-01-02T09:01:39.855Z,67.13
2023-01-02T09:02:35.044Z,66.18
2023-01-02T09:03:32.217Z,64.93
2023-01-02T09:04:30.078Z,66.15
2023-01-02T09:05:36.498Z,65.00
2023-01-02T09:06:34.745Z,64.15
2023-01-02T09:07:43.114Z,64.06
2023-01-02T09:09:36.683Z,62.51
2023-01-02T09:10:36.746Z,62.57
2023-01-02T09:11:36.843Z,61.36
2023-01-02T09:12:36.678Z,61.74
2023-01-02T09:13:36.628Z,60.01
2023-01-02T09:14:36.622Z,59.99
2023-01-02T09:15:36.675Z,60.49
2023-01-02T09:16:36.624Z,60.19
2023-01-02T09:17:36.671Z,59.58
2023-01-02T09:18:36.575Z,60.46
2023-01-02T09:19:36.566Z,59.85
2023-01-02T09:20:36.579Z,60.06
2023-01-02T09:21:36.552Z,60.36
2023-01-02T09:22:37.468Z,60.66
2023-01-02T09:23:36.528Z,58.34
2023-01-02T09:24:36.520Z,59.42
2023-01-02T09:25:36.529Z,56.89
2023-01-02T09:26:36.536Z,58.81
2023-01-02T09:27:37.608Z,57.78
2023-01-02T09:28:36.604Z,57.98
2023-01-02T09:29:36.832Z,58.69
2023-01-02T09:30:36.696Z,58.69
2023-01-02T09:31:36.443Z,59.39
2023-01-02T09:32:36.456Z,58.28
2023-01-02T09:33:36.675Z,57.27
2023-01-02T09:34:36.463Z,58.15
2023-01-02T09:35:37.854Z,56.63
2023-01-02T09:36:36.384Z,56.00
2023-01-02T09:37:36.441Z,57.01
2023-01-02T09:38:36.387Z,57.49
2023-01-02T09:39:36.358Z,59.44
2023-01-02T09:40:36.379Z,57.52
2023-01-02T09:41:36.386Z,58.12
2023-01-02T09:42:36.350Z,57.29
2023-01-02T09:43:36.316Z,56.58
2023-01-02T09:44:36.358Z,58.02
2023-01-02T09:45:36.432Z,57.69
2023-01-02T09:46:36.330Z,56.88
2023-01-02T09:47:36.283Z,55.98
2023-01-02T09:48:36.264Z,56.02
2023-01-02T09:49:36.301Z,55.82
2023-01-02T09:50:36.242Z,54.91
2023-01-02T09:51:36.275Z,55.97
2023-01-02T09:52:36.284Z,54.86
2023-01-02T09:53:36.215Z,54.16
2023-01-02T09:54:36.204Z,53.85
2023-01-02T09:55:36.231Z,54.05
2023-01-02T09:56:36.167Z,54.86
2023-01-02T09:57:36.175Z,55.97
2023-01-02T09:58:38.954Z,55.77
2023-01-02T09:59:36.161Z,54.25
2023-01-02T10:00:36.164Z,55.29
2023-01-02T10:01:36.202Z,55.66
2023-01-02T10:02:36.401Z,54.23
2023-01-02T10:03:36.513Z,54.61
2023-01-02T10:04:36.194Z,55.49
2023-01-02T10:05:36.227Z,54.96
2023-01-02T10:06:36.143Z,53.25
2023-01-02T10:07:36.302Z,53.65
2023-01-02T10:08:36.207Z,54.93
2023-01-02T10:09:36.116Z,54.55
2023-01-02T10:10:36.263Z,54.96
2023-01-02T10:11:36.158Z,53.34
2023-01-02T10:12:36.259Z,54.68
2023-01-02T10:14:18.067Z,54.79
2023-01-02T10:14:43.907Z,54.00
2023-01-02T10:15:37.039Z,54.83
2023-01-02T10:16:36.158Z,55.64
2023-01-02T10:17:36.149Z,56.17
2023-01-02T10:18:36.129Z,55.66
2023-01-02T10:19:35.957Z,57.28
2023-01-02T10:20:36.282Z,57.94
2023-01-02T10:21:36.232Z,56.93
2023-01-02T10:22:36.816Z,56.45
2023-01-02T10:23:35.906Z,56.65
2023-01-02T10:24:35.869Z,56.76
2023-01-02T10:25:35.934Z,56.65
2023-01-02T10:26:35.847Z,55.74
2023-01-02T10:27:35.835Z,56.96
2023-01-02T10:28:35.936Z,56.78
2023-01-02T10:29:35.817Z,57.89
2023-01-02T10:30:35.960Z,56.48
2023-01-02T10:31:35.894Z,57.21
2023-01-02T10:32:35.766Z,58.09
2023-01-02T10:33:35.800Z,58.63
2023-01-02T10:34:35.766Z,58.63
2023-01-02T10:35:35.765Z,58.53
2023-01-02T10:36:35.917Z,58.33
2023-01-02T10:37:35.778Z,56.78
2023-01-02T10:38:35.764Z,58.58
2023-01-02T10:39:35.720Z,57.29
2023-01-02T10:40:35.699Z,57.87
2023-01-02T10:41:35.706Z,58.70
2023-01-02T10:42:35.676Z,58.30
2023-01-02T10:43:35.935Z,59.51
2023-01-02T10:44:35.664Z,58.30
2023-01-02T10:45:35.700Z,58.60
2023-01-02T10:46:35.690Z,58.23
2023-01-02T10:47:35.637Z,59.44
2023-01-02T10:48:36.074Z,59.34
2023-01-02T10:49:35.648Z,59.34
2023-01-02T10:50:35.585Z,59.00
2023-01-02T10:51:35.586Z,59.00
2023-01-02T10:52:35.696Z,59.21
2023-01-02T10:53:35.638Z,59.91
2023-01-02T10:54:35.558Z,58.91
2023-01-02T10:55:35.601Z,58.30
2023-01-02T10:56:35.556Z,57.67
2023-01-02T10:57:35.659Z,59.08
2023-01-02T10:58:35.584Z,59.25
2023-01-02T10:59:35.555Z,59.66
2023-01-02T11:00:35.600Z,59.25
2023-01-02T11:01:35.724Z,59.35
2023-01-02T11:02:35.706Z,58.14
2023-01-02T11:03:35.614Z,58.14
2023-01-02T11:04:35.610Z,59.15
2023-01-02T11:05:35.428Z,59.45
2023-01-02T11:06:39.837Z,58.52
2023-01-02T11:07:35.550Z,59.53
2023-01-02T11:08:35.407Z,59.50
2023-01-02T11:09:35.429Z,59.40
2023-01-02T11:10:35.928Z,58.19
2023-01-02T11:11:36.447Z,58.09
2023-01-02T11:12:38.171Z,59.37
2023-01-02T11:13:35.381Z,57.86
2023-01-02T11:14:35.393Z,59.57
2023-01-02T11:15:35.387Z,56.62
2023-01-02T11:16:35.327Z,55.84
2023-01-02T11:17:35.291Z,55.69
2023-01-02T11:18:35.303Z,55.54
2023-01-02T11:19:36.592Z,57.12
2023-01-02T11:20:35.975Z,53.75
2023-01-02T11:21:35.255Z,54.60
2023-01-02T11:22:35.242Z,54.23
2023-01-02T11:23:35.241Z,56.01
2023-01-02T11:24:35.223Z,54.58
2023-01-02T11:25:35.236Z,54.40
2023-01-02T11:26:35.204Z,55.76
2023-01-02T11:27:35.182Z,56.29
2023-01-02T11:28:36.659Z,56.60
2023-01-02T11:29:37.671Z,56.70
2023-01-02T11:30:35.149Z,56.47
2023-01-02T11:31:35.246Z,56.24
2023-01-02T11:32:35.168Z,54.83
2023-01-02T11:33:35.169Z,55.91
2023-01-02T11:34:35.130Z,55.74
2023-01-02T11:35:35.099Z,54.40
2023-01-02T11:36:35.113Z,55.61
2023-01-02T11:37:40.230Z,55.66
2023-01-02T11:38:38.349Z,57.40
2023-01-02T11:39:35.069Z,57.32
2023-01-02T11:40:35.043Z,56.35
2023-01-02T11:41:35.048Z,58.36
2023-01-02T11:42:35.039Z,58.29
2023-01-02T11:43:35.059Z,58.39
2023-01-02T11:44:35.017Z,59.09
2023-01-02T11:45:35.026Z,58.09
2023-01-02T11:46:37.429Z,57.98
2023-01-02T11:47:39.212Z,58.09
2023-01-02T11:48:34.981Z,58.19
2023-01-02T11:49:34.944Z,57.86
2023-01-02T11:50:34.953Z,56.55
2023-01-02T11:51:34.934Z,57.93
2023-01-02T11:52:34.954Z,57.90
2023-01-02T11:53:34.944Z,56.24
2023-01-02T11:54:34.898Z,55.54
2023-01-02T11:55:38.349Z,56.64
2023-01-02T11:56:41.401Z,56.21
2023-01-02T11:57:35.940Z,56.41
2023-01-02T11:58:34.909Z,56.21
2023-01-02T11:59:34.904Z,57.24
2023-01-02T12:00:34.847Z,55.54
2023-01-02T12:01:34.917Z,56.27
2023-01-02T12:02:34.838Z,56.37
2023-01-02T12:03:34.909Z,56.29
2023-01-02T12:04:37.808Z,57.81
2023-01-02T12:05:38.201Z,58.03
2023-01-02T12:06:34.770Z,58.47
2023-01-02T12:07:34.776Z,57.96
2023-01-02T12:08:41.104Z,56.55
2023-01-02T12:09:35.751Z,58.06
2023-01-02T12:10:34.728Z,56.75
2023-01-02T12:11:34.707Z,59.04
2023-01-02T12:12:34.891Z,58.16
2023-01-02T12:13:34.779Z,58.47
2023-01-02T12:14:41.314Z,59.07
2023-01-02T12:15:34.681Z,58.26
2023-01-02T12:16:34.740Z,58.97
2023-01-02T12:17:34.699Z,60.08
2023-01-02T12:18:35.336Z,60.00
2023-01-02T12:19:34.893Z,59.80
2023-01-02T12:20:34.644Z,59.09
2023-01-02T12:21:34.668Z,58.49
2023-01-02T12:22:35.723Z,59.50
2023-01-02T12:23:38.139Z,59.20
2023-01-02T12:24:34.645Z,59.00
2023-01-02T12:25:34.699Z,59.30
2023-01-02T12:26:34.932Z,58.49
2023-01-02T12:27:34.645Z,58.80
2023-01-02T12:28:34.793Z,59.40
2023-01-02T12:29:47.579Z,60.00
2023-01-02T12:30:35.643Z,60.10
2023-01-02T12:31:34.968Z,59.42
2023-01-02T12:32:39.242Z,59.12
2023-01-02T12:33:34.653Z,59.83
2023-01-02T12:34:34.601Z,59.53
2023-01-02T12:35:34.666Z,60.13
2023-01-02T12:36:34.615Z,60.24
2023-01-02T12:37:34.622Z,59.63
2023-01-02T12:38:34.607Z,61.24
2023-01-02T12:39:34.745Z,60.03
2023-01-02T12:40:40.100Z,59.86
2023-01-02T12:42:01.274Z,59.73
2023-01-02T12:42:34.584Z,60.26
2023-01-02T12:43:34.655Z,60.87
2023-01-02T12:44:34.637Z,60.16
2023-01-02T12:45:34.769Z,60.06
2023-01-02T12:46:34.328Z,60.97
2023-01-02T12:47:34.356Z,60.36
2023-01-02T12:48:34.355Z,60.66
2023-01-02T12:49:36.830Z,61.98
2023-01-02T12:50:34.300Z,62.01
2023-01-02T12:51:34.264Z,61.40
2023-01-02T12:52:34.310Z,61.30
2023-01-02T12:53:34.296Z,62.11